Terminal Aerodrome Forecast
Issued by NWS La Crosse, WI

Home | Current Version | Previous Version | Text Only | Print | Product List | Glossary On
Versions: 1 2 3 4 5 6 7 8 9 10 11 12 13 14 15 16 17 18 19 20 21 22 23 24 25 26 27 28 29 30 31 32
000
FTUS43 KARX 271120
TAFRST
TAF
KRST 271120Z 2712/2812 19012KT P6SM FEW200
     FM272300 16009KT P6SM BKN130
     FM280600 16011KT 5SM BR OVC020
     FM280800 16011KT 2SM BR OVC008=

USA.gov is the U.S. government's official web portal to all federal, state and local government web resources and services.